Hannover, Germany

7:28 PM CET on December 04, 2016 (GMT +0100)
Hannover | | Change Station

Elev 180 ft 52.47 °N, 9.68 °E | Updated 8 minutes ago

Clear
Clear
28 °F
Feels Like 23 °F
N
5
Wind Variable Wind from East

Today
High -- | Low -- °F
--% Chance of Precip.
Yesterday
High -- | Low -- °F
Precip. -- in
Pressure 30.39 in
Visibility 3.7 miles
Clouds
Windchill 23 °F
Dew Point 27 °F
Humidity 93%
Rainfall 0.00 in
Snow Depth Not available.
8:13 AM 4:09 PM
Waxing Crescent, 24% visible
METAR EDDV 041820Z 10004KT 6000 NSC M02/M03 Q1029 BECMG 3000 BCFG
Pressure 30.39 in
Visibility 3.7 miles
Clouds
Windchill 23 °F
Dew Point 27 °F
Humidity 93%
Rainfall 0.00 in
Snow Depth Not available.
8:13 AM 4:09 PM
Waxing Crescent, 24% visible
METAR EDDV 041820Z 10004KT 6000 NSC M02/M03 Q1029 BECMG 3000 BCFG

10-Day Weather Forecast

×

Almanac

Astronomy

Dec. 04, 2016 Rise Set
Actual Time
Civil Twilight
Nautical Twilight
Astronomical Twilight
Moon
Length of Visible Light
Length of Day
Tomorrow will be .
, % of the Moon is Illuminated

Today's Extremes

Country Highs Country Lows

Community

WunderPhotos

Upload Photos

1,955,639 photos uploaded!

WunderBlog® & News

Nearby

Air Quality

  Air Quality AQ Index Pollutant
Not available.

Snow Depth

Station Depth Elevation

Earthquake Activity

City Distance Mag. Time & Date
Minimum magnitude displayed is 2.5.

Coastal Water Temperatures

Place Temperature

Stations

Nearby Weather Stations

Station Location Temp. Windchill Dew Point Humidity Wind Precip. Elev Updated Type